createdAt,value
2022-10-14T00:00:47.555Z,18.00
2022-10-14T00:05:49.952Z,17.90
2022-10-14T00:10:52.499Z,18.00
2022-10-14T00:15:55.184Z,17.90
2022-10-14T00:21:01.553Z,17.90
2022-10-14T00:26:05.817Z,17.90
2022-10-14T00:31:10.886Z,17.70
2022-10-14T00:36:17.217Z,17.80
2022-10-14T00:41:34.126Z,17.90
2022-10-14T00:46:45.225Z,17.80
2022-10-14T00:51:58.602Z,17.80
2022-10-14T00:57:02.156Z,17.80
2022-10-14T01:02:04.871Z,17.80
2022-10-14T01:07:12.996Z,17.80
2022-10-14T01:12:42.767Z,17.60
2022-10-14T01:18:03.787Z,17.70
2022-10-14T01:23:44.031Z,17.70
2022-10-14T01:29:14.317Z,17.70
2022-10-14T01:34:25.565Z,17.60
2022-10-14T01:39:33.177Z,17.70
2022-10-14T01:44:43.493Z,17.70
2022-10-14T01:49:59.289Z,17.70
2022-10-14T01:55:07.726Z,17.60
2022-10-14T02:00:11.614Z,17.60
2022-10-14T02:05:31.483Z,17.70
2022-10-14T02:11:02.561Z,17.70
2022-10-14T02:16:29.469Z,17.60
2022-10-14T02:21:35.136Z,17.60
2022-10-14T02:26:40.608Z,17.60
2022-10-14T02:31:44.993Z,17.60
2022-10-14T02:36:48.748Z,17.70
2022-10-14T02:41:51.205Z,17.70
2022-10-14T02:46:56.228Z,17.60
2022-10-14T02:51:58.956Z,17.60
2022-10-14T02:57:01.377Z,17.60
2022-10-14T03:02:03.895Z,17.60
2022-10-14T03:07:06.939Z,17.50
2022-10-14T03:12:14.867Z,17.50
2022-10-14T03:17:18.985Z,17.40
2022-10-14T03:22:24.001Z,17.50
2022-10-14T03:27:26.710Z,17.50
2022-10-14T03:32:36.082Z,17.40
2022-10-14T03:38:06.591Z,17.40
2022-10-14T03:43:10.527Z,17.40
2022-10-14T03:48:22.878Z,17.40
2022-10-14T03:53:25.474Z,17.40
2022-10-14T03:58:28.329Z,17.40
2022-10-14T04:03:37.604Z,17.40
2022-10-14T04:08:40.746Z,17.40
2022-10-14T04:14:01.753Z,17.40
2022-10-14T04:19:06.637Z,17.30
2022-10-14T04:24:10.076Z,17.30
2022-10-14T04:29:27.077Z,16.30
2022-10-14T04:34:37.600Z,16.20
2022-10-14T04:39:41.992Z,16.60
2022-10-14T04:44:44.875Z,16.70
2022-10-14T04:49:51.321Z,16.80
2022-10-14T04:54:56.779Z,16.80
2022-10-14T05:00:12.179Z,17.00
2022-10-14T05:05:17.504Z,17.00
2022-10-14T05:10:24.751Z,17.00
2022-10-14T05:15:27.349Z,17.00
2022-10-14T05:20:40.383Z,17.00
2022-10-14T05:25:43.302Z,17.00
2022-10-14T05:30:46.126Z,17.00
2022-10-14T05:36:03.882Z,17.10
2022-10-14T05:41:09.983Z,17.00
2022-10-14T05:46:14.389Z,17.10
2022-10-14T05:51:22.734Z,17.00
2022-10-14T05:56:29.852Z,17.10
2022-10-14T06:01:34.861Z,17.10
2022-10-14T06:06:38.339Z,17.10
2022-10-14T06:11:41.036Z,17.10
2022-10-14T06:16:43.494Z,17.10
2022-10-14T06:21:46.505Z,17.10
2022-10-14T06:26:49.053Z,17.10
2022-10-14T06:31:51.443Z,17.10
2022-10-14T06:36:56.445Z,17.10
2022-10-14T06:42:03.355Z,17.10
2022-10-14T06:47:07.990Z,17.20
2022-10-14T06:52:10.627Z,17.30
2022-10-14T06:57:13.062Z,17.30
2022-10-14T07:02:15.442Z,17.20
2022-10-14T07:07:17.997Z,17.20
2022-10-14T07:12:20.932Z,17.10
2022-10-14T07:17:24.040Z,17.10
2022-10-14T07:22:26.720Z,17.20
2022-10-14T07:27:29.119Z,17.30
2022-10-14T07:32:32.111Z,17.40
2022-10-14T07:37:34.577Z,17.40
2022-10-14T07:42:37.043Z,17.30
2022-10-14T07:47:39.558Z,17.40
2022-10-14T07:52:42.050Z,17.40
2022-10-14T07:57:44.617Z,17.40
2022-10-14T08:02:47.114Z,17.40
2022-10-14T08:07:50.201Z,17.20
2022-10-14T08:12:52.650Z,17.20
2022-10-14T08:17:55.238Z,17.30
2022-10-14T08:22:57.648Z,17.40
2022-10-14T08:28:00.183Z,17.40
2022-10-14T08:33:02.686Z,17.40
2022-10-14T08:38:05.190Z,17.30
2022-10-14T08:43:30.417Z,17.40
2022-10-14T08:48:35.311Z,17.50
2022-10-14T08:53:46.237Z,17.50
2022-10-14T08:58:54.581Z,17.60
2022-10-14T09:04:05.442Z,17.40
2022-10-14T09:09:35.538Z,17.30
2022-10-14T09:14:45.999Z,17.50
2022-10-14T09:19:54.362Z,17.50
2022-10-14T09:24:58.573Z,17.60
2022-10-14T09:30:04.831Z,17.60
2022-10-14T09:35:26.717Z,17.50
2022-10-14T09:40:44.828Z,17.60
2022-10-14T09:46:08.092Z,17.70
2022-10-14T09:51:21.485Z,17.50
2022-10-14T09:56:41.908Z,17.70
2022-10-14T10:01:57.691Z,17.70
2022-10-14T10:07:06.392Z,15.20
2022-10-14T10:12:47.230Z,15.30
2022-10-14T10:17:50.537Z,15.00
2022-10-14T10:22:52.978Z,15.60
2022-10-14T10:27:59.711Z,17.10
2022-10-14T10:33:24.971Z,17.10
2022-10-14T10:38:52.423Z,17.10
2022-10-14T10:44:22.922Z,17.50
2022-10-14T10:50:04.999Z,17.20
2022-10-14T10:55:38.263Z,17.70
2022-10-14T11:01:01.844Z,17.90
2022-10-14T11:06:37.530Z,17.50
2022-10-14T11:12:03.358Z,17.60
2022-10-14T11:17:15.173Z,17.80
2022-10-14T11:22:21.533Z,18.10
2022-10-14T11:27:44.611Z,17.90
2022-10-14T11:33:22.325Z,18.00
2022-10-14T11:38:48.405Z,18.00
2022-10-14T11:44:01.709Z,17.30
2022-10-14T11:49:09.947Z,17.50
2022-10-14T11:54:24.983Z,17.90
2022-10-14T11:59:40.515Z,18.00
2022-10-14T12:05:10.564Z,18.00
2022-10-14T12:10:22.825Z,18.00
2022-10-14T12:15:27.236Z,18.10
2022-10-14T12:20:36.507Z,18.10
2022-10-14T12:26:05.245Z,18.00
2022-10-14T12:31:35.769Z,18.20
2022-10-14T12:36:39.906Z,18.10
2022-10-14T12:42:01.563Z,17.70
2022-10-14T12:47:05.222Z,17.80
2022-10-14T12:52:08.737Z,17.70
2022-10-14T12:57:31.190Z,17.90
2022-10-14T13:02:37.145Z,18.00
2022-10-14T13:07:46.827Z,18.10
2022-10-14T13:12:49.747Z,18.00
2022-10-14T13:17:52.324Z,18.00
2022-10-14T13:23:13.151Z,17.90
2022-10-14T13:28:35.518Z,17.80
2022-10-14T13:33:46.373Z,17.90
2022-10-14T13:38:59.361Z,18.00
2022-10-14T13:44:02.636Z,17.80
2022-10-14T13:49:08.387Z,17.80
2022-10-14T13:54:22.536Z,17.80
2022-10-14T13:59:44.074Z,17.80
2022-10-14T14:04:57.166Z,17.80
2022-10-14T14:10:05.651Z,17.60
2022-10-14T14:15:17.526Z,17.70
2022-10-14T14:20:26.938Z,17.70
2022-10-14T14:25:34.542Z,17.80
2022-10-14T14:30:54.311Z,17.80
2022-10-14T14:36:00.308Z,17.80
2022-10-14T14:41:18.506Z,16.80
2022-10-14T14:46:45.386Z,15.80
2022-10-14T14:51:48.473Z,15.60
2022-10-14T14:56:56.905Z,15.40
2022-10-14T15:02:01.374Z,15.30
2022-10-14T15:07:08.687Z,15.20
2022-10-14T15:12:24.236Z,15.10
2022-10-14T15:17:37.577Z,15.10
2022-10-14T15:22:41.384Z,15.00
2022-10-14T15:27:48.457Z,15.00
2022-10-14T15:32:55.481Z,14.90
2022-10-14T15:37:57.978Z,14.90
2022-10-14T15:43:00.635Z,16.50
2022-10-14T15:48:06.824Z,17.10
2022-10-14T15:53:10.703Z,17.60
2022-10-14T15:58:13.133Z,17.90
2022-10-14T16:03:17.828Z,18.10
2022-10-14T16:08:20.627Z,18.30
2022-10-14T16:13:23.080Z,18.50
2022-10-14T16:18:26.060Z,18.50
2022-10-14T16:23:34.490Z,18.60
2022-10-14T16:28:37.031Z,18.60
2022-10-14T16:33:43.135Z,18.70
2022-10-14T16:38:49.201Z,18.70
2022-10-14T16:43:51.618Z,18.70
2022-10-14T16:48:55.141Z,18.70
2022-10-14T16:53:58.250Z,18.70
2022-10-14T16:59:01.652Z,18.70
2022-10-14T17:04:04.150Z,18.70
2022-10-14T17:09:06.755Z,18.70
2022-10-14T17:14:12.437Z,18.60
2022-10-14T17:19:15.096Z,18.40
2022-10-14T17:24:17.615Z,18.40
2022-10-14T17:29:20.607Z,18.40
2022-10-14T17:34:25.541Z,18.30
2022-10-14T17:39:29.425Z,18.40
2022-10-14T17:44:33.394Z,18.20
2022-10-14T17:49:36.902Z,18.10
2022-10-14T17:54:39.293Z,17.90
2022-10-14T17:59:41.652Z,18.10
2022-10-14T18:04:44.083Z,18.20
2022-10-14T18:09:46.479Z,18.20
2022-10-14T18:14:49.879Z,18.20
2022-10-14T18:19:52.558Z,18.10
2022-10-14T18:24:55.017Z,18.10
2022-10-14T18:29:58.102Z,13.00
2022-10-14T18:35:00.578Z,12.10
2022-10-14T18:40:03.245Z,12.00
2022-10-14T18:45:06.141Z,11.90
2022-10-14T18:50:08.745Z,11.90
2022-10-14T18:55:11.125Z,12.00
2022-10-14T19:00:14.468Z,11.80
2022-10-14T19:05:17.849Z,11.90
2022-10-14T19:10:20.172Z,12.10
2022-10-14T19:15:26.539Z,11.90
2022-10-14T19:20:31.984Z,12.00
2022-10-14T19:25:36.329Z,11.80
2022-10-14T19:30:38.635Z,11.40
2022-10-14T19:35:41.092Z,11.30
2022-10-14T19:40:43.560Z,11.40
2022-10-14T19:45:48.233Z,11.50
2022-10-14T19:50:53.184Z,11.60
2022-10-14T19:56:06.145Z,11.60
2022-10-14T20:01:15.039Z,11.70
2022-10-14T20:06:20.400Z,11.60
2022-10-14T20:11:24.617Z,11.50
2022-10-14T20:16:27.354Z,11.40
2022-10-14T20:21:31.017Z,11.10
2022-10-14T20:26:33.525Z,10.80
2022-10-14T20:31:35.992Z,10.70
2022-10-14T20:36:38.424Z,10.50
2022-10-14T20:41:40.734Z,10.50
2022-10-14T20:46:43.406Z,10.60
2022-10-14T20:51:45.803Z,10.70
2022-10-14T20:56:49.471Z,10.80
2022-10-14T21:01:51.942Z,10.80
2022-10-14T21:06:54.303Z,10.70
2022-10-14T21:11:56.906Z,10.90
2022-10-14T21:16:59.478Z,11.00
2022-10-14T21:22:03.998Z,11.00
2022-10-14T21:27:06.608Z,11.00
2022-10-14T21:32:09.099Z,11.00
2022-10-14T21:37:12.156Z,10.90
2022-10-14T21:42:14.602Z,10.70
2022-10-14T21:47:17.056Z,10.60
2022-10-14T21:52:19.808Z,10.60
2022-10-14T21:57:22.602Z,10.60
2022-10-14T22:02:25.095Z,10.40
2022-10-14T22:07:27.572Z,10.40
2022-10-14T22:12:30.428Z,10.50
2022-10-14T22:17:33.070Z,10.50
2022-10-14T22:22:35.508Z,10.60
2022-10-14T22:27:37.946Z,10.60
2022-10-14T22:32:40.323Z,10.50
2022-10-14T22:37:42.877Z,10.50
2022-10-14T22:42:49.073Z,10.50
2022-10-14T22:47:53.861Z,10.50
2022-10-14T22:52:56.221Z,10.40
2022-10-14T22:57:58.674Z,10.10
2022-10-14T23:03:01.131Z,10.00
2022-10-14T23:08:04.229Z,9.90
2022-10-14T23:13:07.126Z,9.70
2022-10-14T23:18:09.515Z,9.70
2022-10-14T23:23:11.914Z,9.60
2022-10-14T23:28:14.903Z,9.60
2022-10-14T23:33:17.721Z,9.40
2022-10-14T23:38:20.287Z,9.40
2022-10-14T23:43:22.776Z,9.30
2022-10-14T23:48:25.691Z,9.50
2022-10-14T23:53:28.606Z,9.50
2022-10-14T23:58:31.436Z,9.40
